createdAt,value
2023-10-06T00:00:59.543Z,981.19
2023-10-06T00:01:59.698Z,981.18
2023-10-06T00:02:59.646Z,981.21
2023-10-06T00:03:59.704Z,981.21
2023-10-06T00:05:00.001Z,981.19
2023-10-06T00:05:59.782Z,981.23
2023-10-06T00:06:59.857Z,981.20
2023-10-06T00:07:59.924Z,981.20
2023-10-06T00:08:59.914Z,981.23
2023-10-06T00:09:59.972Z,981.28
2023-10-06T00:11:00.033Z,981.31
2023-10-06T00:12:00.093Z,981.27
2023-10-06T00:13:00.138Z,981.29
2023-10-06T00:14:00.168Z,981.30
2023-10-06T00:15:00.235Z,981.30
2023-10-06T00:16:00.310Z,981.28
2023-10-06T00:17:00.328Z,981.34
2023-10-06T00:18:00.409Z,981.33
2023-10-06T00:19:00.420Z,981.34
2023-10-06T00:20:00.471Z,981.35
2023-10-06T00:21:00.490Z,981.34
2023-10-06T00:22:00.531Z,981.34
2023-10-06T00:23:00.621Z,981.37
2023-10-06T00:24:00.642Z,981.34
2023-10-06T00:25:00.854Z,981.33
2023-10-06T00:26:00.755Z,981.28
2023-10-06T00:27:01.575Z,981.23
2023-10-06T00:28:00.797Z,981.23
2023-10-06T00:29:00.920Z,981.20
2023-10-06T00:30:00.897Z,981.17
2023-10-06T00:31:00.954Z,981.19
2023-10-06T00:32:01.092Z,981.18
2023-10-06T00:33:01.085Z,981.16
2023-10-06T00:34:01.113Z,981.16
2023-10-06T00:35:01.178Z,981.14
2023-10-06T00:36:01.179Z,981.11
2023-10-06T00:37:01.232Z,981.15
2023-10-06T00:38:01.341Z,981.10
2023-10-06T00:39:01.362Z,981.12
2023-10-06T00:40:01.375Z,981.12
2023-10-06T00:41:01.424Z,981.12
2023-10-06T00:42:01.465Z,981.14
2023-10-06T00:43:01.527Z,981.11
2023-10-06T00:44:01.631Z,981.10
2023-10-06T00:45:01.602Z,981.13
2023-10-06T00:46:01.709Z,981.11
2023-10-06T00:47:01.781Z,981.14
2023-10-06T00:48:01.859Z,981.13
2023-10-06T00:49:01.829Z,981.17
2023-10-06T00:50:01.884Z,981.17
2023-10-06T00:51:01.912Z,981.22
2023-10-06T00:52:01.974Z,981.20
2023-10-06T00:53:02.008Z,981.18
2023-10-06T00:54:02.038Z,981.19
2023-10-06T00:55:02.079Z,981.13
2023-10-06T00:56:02.259Z,981.16
2023-10-06T00:57:02.241Z,981.15
2023-10-06T00:58:02.223Z,981.12
2023-10-06T00:59:02.329Z,981.16
2023-10-06T01:00:02.306Z,981.16
2023-10-06T01:01:02.347Z,981.17
2023-10-06T01:02:02.523Z,981.20
2023-10-06T01:03:02.540Z,981.19
2023-10-06T01:04:03.348Z,981.18
2023-10-06T01:05:02.574Z,981.17
2023-10-06T01:06:02.602Z,981.16
2023-10-06T01:07:02.631Z,981.19
2023-10-06T01:08:02.716Z,981.21
2023-10-06T01:09:02.758Z,981.19
2023-10-06T01:10:02.779Z,981.18
2023-10-06T01:11:02.844Z,981.18
2023-10-06T01:12:02.868Z,981.16
2023-10-06T01:13:02.914Z,981.20
2023-10-06T01:14:03.030Z,981.21
2023-10-06T01:15:03.005Z,981.19
2023-10-06T01:16:03.094Z,981.21
2023-10-06T01:17:03.123Z,981.21
2023-10-06T01:18:03.202Z,981.23
2023-10-06T01:19:03.220Z,981.24
2023-10-06T01:20:03.352Z,981.25
2023-10-06T01:21:03.305Z,981.22
2023-10-06T01:22:03.330Z,981.25
2023-10-06T01:23:04.123Z,981.19
2023-10-06T01:24:03.446Z,981.19
2023-10-06T01:25:03.522Z,981.17
2023-10-06T01:26:03.572Z,981.19
2023-10-06T01:27:03.565Z,981.17
2023-10-06T01:28:03.623Z,981.14
2023-10-06T01:29:03.703Z,981.13
2023-10-06T01:30:03.695Z,981.14
2023-10-06T01:31:03.806Z,981.18
2023-10-06T01:32:03.821Z,981.15
2023-10-06T01:33:03.869Z,981.14
2023-10-06T01:34:03.890Z,981.18
2023-10-06T01:35:03.953Z,981.19
2023-10-06T01:36:04.012Z,981.14
2023-10-06T01:37:04.074Z,981.14
2023-10-06T01:38:04.109Z,981.16
2023-10-06T01:39:04.128Z,981.13
2023-10-06T01:40:04.169Z,981.12
2023-10-06T01:41:04.255Z,981.10
2023-10-06T01:42:04.292Z,981.11
2023-10-06T01:43:04.318Z,981.10
2023-10-06T01:44:04.409Z,981.12
2023-10-06T01:45:04.401Z,981.14
2023-10-06T01:46:04.456Z,981.15
2023-10-06T01:47:04.549Z,981.14
2023-10-06T01:48:04.566Z,981.12
2023-10-06T01:49:04.597Z,981.10
2023-10-06T01:50:04.692Z,981.11
2023-10-06T01:51:04.672Z,981.15
2023-10-06T01:52:09.366Z,981.12
2023-10-06T01:53:04.785Z,981.08
2023-10-06T01:54:04.857Z,981.11
2023-10-06T01:55:04.878Z,981.10
2023-10-06T01:56:04.974Z,981.11
2023-10-06T01:57:04.970Z,981.13
2023-10-06T01:58:05.006Z,981.15
2023-10-06T01:59:05.117Z,981.18
2023-10-06T02:00:05.140Z,981.17
2023-10-06T02:01:05.160Z,981.19
2023-10-06T02:02:05.225Z,981.20
2023-10-06T02:03:05.308Z,981.15
2023-10-06T02:04:05.294Z,981.19
2023-10-06T02:05:05.433Z,981.18
2023-10-06T02:06:05.381Z,981.14
2023-10-06T02:07:05.418Z,981.14
2023-10-06T02:08:05.491Z,981.14
2023-10-06T02:09:05.514Z,981.15
2023-10-06T02:10:05.602Z,981.16
2023-10-06T02:11:05.657Z,981.09
2023-10-06T02:12:05.701Z,981.11
2023-10-06T02:13:05.695Z,981.08
2023-10-06T02:14:05.810Z,981.10
2023-10-06T02:15:05.828Z,981.11
2023-10-06T02:16:05.861Z,981.11
2023-10-06T02:17:05.977Z,981.10
2023-10-06T02:18:06.039Z,981.08
2023-10-06T02:19:06.023Z,981.08
2023-10-06T02:20:06.088Z,981.14
2023-10-06T02:21:06.068Z,981.11
2023-10-06T02:22:06.110Z,981.11
2023-10-06T02:23:06.213Z,981.09
2023-10-06T02:24:06.226Z,981.10
2023-10-06T02:25:07.086Z,981.09
2023-10-06T02:26:06.345Z,981.10
2023-10-06T02:27:06.352Z,981.14
2023-10-06T02:28:06.424Z,981.14
2023-10-06T02:29:06.505Z,981.14
2023-10-06T02:30:06.476Z,981.17
2023-10-06T02:31:06.612Z,981.16
2023-10-06T02:32:06.709Z,981.13
2023-10-06T02:33:06.681Z,981.16
2023-10-06T02:34:06.666Z,981.10
2023-10-06T02:35:06.876Z,981.08
2023-10-06T02:36:06.792Z,981.11
2023-10-06T02:37:06.824Z,981.15
2023-10-06T02:38:07.145Z,981.09
2023-10-06T02:39:07.157Z,981.12
2023-10-06T02:40:06.941Z,981.13
2023-10-06T02:41:07.032Z,981.12
2023-10-06T02:42:07.033Z,981.14
2023-10-06T02:43:07.085Z,981.13
2023-10-06T02:44:07.239Z,981.16
2023-10-06T02:45:07.180Z,981.14
2023-10-06T02:46:07.217Z,981.12
2023-10-06T02:47:07.401Z,981.13
2023-10-06T02:48:07.354Z,981.15
2023-10-06T02:49:07.571Z,981.18
2023-10-06T02:50:07.436Z,981.15
2023-10-06T02:51:07.461Z,981.11
2023-10-06T02:52:07.507Z,981.14
2023-10-06T02:53:07.564Z,981.12
2023-10-06T02:54:07.632Z,981.10
2023-10-06T02:55:07.635Z,981.13
2023-10-06T02:56:07.745Z,981.14
2023-10-06T02:57:07.759Z,981.14
2023-10-06T02:58:07.791Z,981.12
2023-10-06T02:59:08.120Z,981.12
2023-10-06T03:00:07.910Z,981.08
2023-10-06T03:01:07.940Z,981.14
2023-10-06T03:02:08.137Z,981.09
2023-10-06T03:03:08.029Z,981.05
2023-10-06T03:04:08.068Z,981.03
2023-10-06T03:05:08.171Z,981.06
2023-10-06T03:06:08.214Z,981.05
2023-10-06T03:07:08.192Z,981.11
2023-10-06T03:08:08.314Z,981.07
2023-10-06T03:09:08.567Z,981.08
2023-10-06T03:10:08.340Z,981.07
2023-10-06T03:11:08.432Z,981.07
2023-10-06T03:12:08.467Z,981.05
2023-10-06T03:13:08.479Z,981.04
2023-10-06T03:14:08.566Z,981.03
2023-10-06T03:15:08.575Z,981.05
2023-10-06T03:16:08.626Z,981.07
2023-10-06T03:17:08.750Z,981.07
2023-10-06T03:18:08.752Z,981.07
2023-10-06T03:19:09.068Z,981.08
2023-10-06T03:20:08.812Z,981.14
2023-10-06T03:21:08.858Z,981.11
2023-10-06T03:22:08.937Z,981.09
2023-10-06T03:23:08.984Z,981.09
2023-10-06T03:24:08.990Z,981.07
2023-10-06T03:25:09.051Z,981.07
2023-10-06T03:26:09.130Z,981.04
2023-10-06T03:27:09.160Z,981.04
2023-10-06T03:28:09.205Z,981.08
2023-10-06T03:29:09.544Z,981.06
2023-10-06T03:30:09.273Z,981.06
2023-10-06T03:31:09.366Z,981.04
2023-10-06T03:32:09.390Z,981.07
2023-10-06T03:33:09.464Z,981.03
2023-10-06T03:34:09.460Z,981.04
2023-10-06T03:35:09.547Z,981.02
2023-10-06T03:36:09.556Z,981.03
2023-10-06T03:37:09.613Z,981.03
2023-10-06T03:38:09.747Z,980.99
2023-10-06T03:39:09.813Z,981.03
2023-10-06T03:40:09.749Z,981.01
2023-10-06T03:41:09.831Z,981.02
2023-10-06T03:42:09.840Z,981.06
2023-10-06T03:43:09.924Z,981.06
2023-10-06T03:44:09.968Z,981.10
2023-10-06T03:45:10.021Z,981.09
2023-10-06T03:46:10.152Z,981.06
2023-10-06T03:47:10.108Z,981.07
2023-10-06T03:48:10.123Z,981.05
2023-10-06T03:49:10.313Z,981.06
2023-10-06T03:50:10.284Z,981.05
2023-10-06T03:51:10.258Z,981.04
2023-10-06T03:52:10.345Z,981.06
2023-10-06T03:53:10.444Z,981.01
2023-10-06T03:54:10.429Z,981.04
2023-10-06T03:55:10.492Z,981.04
2023-10-06T03:56:10.675Z,981.03
2023-10-06T03:57:10.549Z,981.01
2023-10-06T03:58:10.604Z,981.02
2023-10-06T03:59:10.892Z,981.01
2023-10-06T04:00:10.721Z,981.00
2023-10-06T04:01:10.738Z,980.99
2023-10-06T04:02:10.865Z,980.99
2023-10-06T04:03:11.117Z,980.99
2023-10-06T04:04:10.934Z,980.97
2023-10-06T04:05:11.000Z,980.97
2023-10-06T04:06:10.984Z,981.00
2023-10-06T04:07:11.073Z,981.00
2023-10-06T04:08:11.089Z,980.96
2023-10-06T04:09:11.321Z,981.00
2023-10-06T04:10:11.164Z,980.99
2023-10-06T04:11:11.255Z,981.01
2023-10-06T04:12:11.294Z,981.01
2023-10-06T04:13:11.386Z,981.02
2023-10-06T04:14:11.377Z,981.01
2023-10-06T04:15:11.401Z,981.01
2023-10-06T04:16:11.462Z,980.99
2023-10-06T04:17:11.539Z,980.98
2023-10-06T04:18:11.586Z,980.95
2023-10-06T04:19:11.616Z,980.95
2023-10-06T04:20:11.685Z,980.95
2023-10-06T04:21:11.691Z,980.94
2023-10-06T04:22:11.728Z,980.89
2023-10-06T04:23:11.843Z,980.86
2023-10-06T04:24:11.875Z,980.89
2023-10-06T04:25:11.885Z,980.86
2023-10-06T04:26:11.931Z,980.89
2023-10-06T04:27:11.980Z,980.89
2023-10-06T04:28:12.055Z,980.88
2023-10-06T04:29:12.230Z,980.82
2023-10-06T04:30:12.615Z,980.89
2023-10-06T04:31:12.183Z,980.88
2023-10-06T04:32:12.238Z,980.87
2023-10-06T04:33:12.273Z,980.86
2023-10-06T04:34:12.301Z,980.88
2023-10-06T04:35:12.400Z,980.85
2023-10-06T04:36:13.145Z,980.89
2023-10-06T04:37:12.453Z,980.87
2023-10-06T04:38:12.506Z,980.88
2023-10-06T04:39:12.592Z,980.86
2023-10-06T04:40:12.608Z,980.87
2023-10-06T04:41:12.671Z,980.86
2023-10-06T04:42:12.675Z,980.81
2023-10-06T04:43:12.728Z,980.85
2023-10-06T04:44:12.845Z,980.86
2023-10-06T04:45:12.825Z,980.83
2023-10-06T04:46:12.887Z,980.86
2023-10-06T04:47:12.966Z,980.90
2023-10-06T04:48:12.960Z,980.83
2023-10-06T04:49:13.075Z,980.81
2023-10-06T04:50:13.135Z,980.86
2023-10-06T04:51:13.113Z,980.84
2023-10-06T04:52:13.156Z,980.88
2023-10-06T04:53:13.261Z,980.93
2023-10-06T04:54:13.282Z,980.87
2023-10-06T04:55:13.287Z,980.87
2023-10-06T04:56:13.384Z,980.87
2023-10-06T04:57:13.388Z,980.87
2023-10-06T04:58:13.439Z,980.88
2023-10-06T04:59:13.628Z,980.88
2023-10-06T05:00:13.535Z,980.86
2023-10-06T05:01:13.641Z,980.87
2023-10-06T05:02:13.722Z,980.85
2023-10-06T05:03:13.740Z,980.83
2023-10-06T05:04:13.759Z,980.80
2023-10-06T05:05:13.796Z,980.83
2023-10-06T05:06:13.819Z,980.84
2023-10-06T05:07:13.859Z,980.84
2023-10-06T05:08:13.979Z,980.87
2023-10-06T05:09:13.986Z,980.89
2023-10-06T05:10:14.032Z,980.86
2023-10-06T05:11:14.063Z,980.91
2023-10-06T05:12:14.104Z,980.90
2023-10-06T05:13:14.142Z,980.88
2023-10-06T05:14:14.267Z,980.87
2023-10-06T05:15:14.240Z,980.87
2023-10-06T05:16:14.317Z,980.84
2023-10-06T05:17:14.468Z,980.85
2023-10-06T05:18:14.399Z,980.87
2023-10-06T05:19:14.457Z,980.83
2023-10-06T05:20:14.522Z,980.84
2023-10-06T05:21:14.530Z,980.85
2023-10-06T05:22:14.581Z,980.84
2023-10-06T05:23:14.656Z,980.87
2023-10-06T05:24:14.696Z,980.84
2023-10-06T05:25:14.730Z,980.85
2023-10-06T05:26:15.692Z,980.87
2023-10-06T05:27:14.845Z,980.89
2023-10-06T05:28:14.887Z,980.91
2023-10-06T05:29:14.965Z,980.87
2023-10-06T05:30:14.966Z,980.92
2023-10-06T05:31:15.040Z,980.85
2023-10-06T05:32:15.178Z,980.87
2023-10-06T05:33:15.208Z,980.86
2023-10-06T05:34:15.140Z,980.88
2023-10-06T05:35:15.448Z,980.90
2023-10-06T05:36:19.269Z,980.94
2023-10-06T05:37:15.324Z,980.89
2023-10-06T05:38:15.529Z,980.91
2023-10-06T05:39:15.390Z,980.93
2023-10-06T05:40:15.439Z,980.92
2023-10-06T05:41:15.570Z,980.90
2023-10-06T05:42:15.556Z,980.90
2023-10-06T05:43:15.578Z,980.95
2023-10-06T05:44:15.685Z,980.95
2023-10-06T05:45:16.662Z,980.98
2023-10-06T05:46:15.782Z,980.98
2023-10-06T05:47:15.792Z,980.99
2023-10-06T05:48:15.810Z,981.01
2023-10-06T05:49:15.877Z,981.02
2023-10-06T05:50:15.924Z,981.00
2023-10-06T05:51:16.173Z,980.98
2023-10-06T05:52:16.008Z,981.02
2023-10-06T05:53:16.074Z,981.00
2023-10-06T05:54:16.134Z,981.01
2023-10-06T05:55:16.147Z,981.04
2023-10-06T05:56:16.251Z,981.04
2023-10-06T05:57:16.243Z,981.04
2023-10-06T05:58:16.293Z,981.04
2023-10-06T05:59:16.365Z,981.04
2023-10-06T06:00:16.423Z,981.07
2023-10-06T06:01:16.425Z,981.10
2023-10-06T06:02:16.526Z,981.07
2023-10-06T06:03:16.533Z,981.12
2023-10-06T06:04:17.135Z,981.15
2023-10-06T06:05:16.678Z,981.15
2023-10-06T06:06:16.672Z,981.19
2023-10-06T06:07:16.713Z,981.18
2023-10-06T06:08:16.800Z,981.20
2023-10-06T06:09:16.845Z,981.18
2023-10-06T06:10:17.634Z,981.18
2023-10-06T06:11:17.015Z,981.21
2023-10-06T06:12:16.955Z,981.22
2023-10-06T06:13:17.742Z,981.24
2023-10-06T06:14:18.104Z,981.25
2023-10-06T06:15:17.103Z,981.27
2023-10-06T06:16:17.230Z,981.23
2023-10-06T06:17:17.260Z,981.25
2023-10-06T06:18:17.242Z,981.23
2023-10-06T06:19:17.323Z,981.23
2023-10-06T06:20:18.643Z,981.25
2023-10-06T06:21:17.389Z,981.24
2023-10-06T06:22:17.431Z,981.26
2023-10-06T06:23:18.152Z,981.30
2023-10-06T06:24:17.563Z,981.25
2023-10-06T06:25:17.572Z,981.31
2023-10-06T06:26:17.661Z,981.28
2023-10-06T06:27:17.682Z,981.33
2023-10-06T06:28:17.745Z,981.31
2023-10-06T06:29:17.867Z,981.31
2023-10-06T06:30:17.813Z,981.31
2023-10-06T06:31:17.946Z,981.31
2023-10-06T06:32:17.937Z,981.32
2023-10-06T06:33:20.217Z,981.34
2023-10-06T06:34:18.046Z,981.32
2023-10-06T06:35:18.116Z,981.37
2023-10-06T06:36:18.095Z,981.36
2023-10-06T06:37:18.184Z,981.36
2023-10-06T06:38:18.216Z,981.35
2023-10-06T06:39:18.266Z,981.34
2023-10-06T06:40:18.321Z,981.36
2023-10-06T06:41:18.438Z,981.39
2023-10-06T06:42:18.385Z,981.40
2023-10-06T06:43:18.440Z,981.40
2023-10-06T06:44:18.520Z,981.42
2023-10-06T06:45:18.559Z,981.39
2023-10-06T06:46:18.722Z,981.40
2023-10-06T06:47:18.668Z,981.40
2023-10-06T06:48:18.727Z,981.40
2023-10-06T06:49:18.725Z,981.39
2023-10-06T06:50:18.876Z,981.39
2023-10-06T06:51:18.845Z,981.39
2023-10-06T06:52:19.648Z,981.36
2023-10-06T06:53:18.937Z,981.40
2023-10-06T06:54:18.965Z,981.38
2023-10-06T06:55:19.019Z,981.40
2023-10-06T06:56:19.105Z,981.46
2023-10-06T06:57:19.138Z,981.42
2023-10-06T06:58:19.151Z,981.45
2023-10-06T06:59:19.222Z,981.44
2023-10-06T07:00:19.309Z,981.43
2023-10-06T07:01:19.313Z,981.41
2023-10-06T07:02:19.415Z,981.45
2023-10-06T07:03:19.424Z,981.44
2023-10-06T07:04:19.445Z,981.40
2023-10-06T07:05:19.520Z,981.41
2023-10-06T07:06:19.534Z,981.47
2023-10-06T07:07:19.605Z,981.45
2023-10-06T07:08:19.664Z,981.47
2023-10-06T07:09:19.704Z,981.48
2023-10-06T07:10:19.730Z,981.47
2023-10-06T07:11:19.828Z,981.47
2023-10-06T07:12:19.920Z,981.50
2023-10-06T07:13:19.868Z,981.49
2023-10-06T07:14:19.981Z,981.46
2023-10-06T07:15:19.991Z,981.45
2023-10-06T07:16:20.017Z,981.47
2023-10-06T07:17:20.107Z,981.47
2023-10-06T07:18:20.191Z,981.53
2023-10-06T07:19:20.156Z,981.52
2023-10-06T07:20:20.281Z,981.55
2023-10-06T07:21:20.257Z,981.62
2023-10-06T07:22:20.329Z,981.61
2023-10-06T07:23:20.447Z,981.64
2023-10-06T07:24:20.399Z,981.65
2023-10-06T07:25:20.457Z,981.67
2023-10-06T07:26:20.532Z,981.70
2023-10-06T07:27:20.573Z,981.67
2023-10-06T07:28:20.591Z,981.69
2023-10-06T07:29:20.689Z,981.70
2023-10-06T07:30:20.685Z,981.68
2023-10-06T07:31:20.859Z,981.65
2023-10-06T07:32:20.829Z,981.66
2023-10-06T07:33:20.859Z,981.68
2023-10-06T07:34:20.913Z,981.68
2023-10-06T07:35:20.974Z,981.69
2023-10-06T07:36:20.975Z,981.71
2023-10-06T07:37:21.060Z,981.76
2023-10-06T07:38:21.111Z,981.75
2023-10-06T07:39:21.134Z,981.78
2023-10-06T07:40:21.181Z,981.79
2023-10-06T07:41:21.331Z,981.79
2023-10-06T07:42:21.271Z,981.77
2023-10-06T07:43:21.351Z,981.75
2023-10-06T07:44:21.477Z,981.76
2023-10-06T07:45:23.411Z,981.73
2023-10-06T07:46:21.534Z,981.74
2023-10-06T07:47:21.548Z,981.73
2023-10-06T07:48:21.561Z,981.75
2023-10-06T07:49:21.647Z,981.76
2023-10-06T07:50:21.677Z,981.76
2023-10-06T07:51:21.716Z,981.79
2023-10-06T07:52:21.767Z,981.83
2023-10-06T07:53:21.837Z,981.81
2023-10-06T07:54:21.893Z,981.81
2023-10-06T07:55:21.909Z,981.82
2023-10-06T07:56:21.992Z,981.84
2023-10-06T07:57:22.001Z,981.82
2023-10-06T07:58:22.090Z,981.80
2023-10-06T07:59:22.129Z,981.83
2023-10-06T08:00:22.156Z,981.83
2023-10-06T08:01:22.248Z,981.84
2023-10-06T08:02:22.270Z,981.84
2023-10-06T08:03:22.363Z,981.83
2023-10-06T08:04:22.347Z,981.83
2023-10-06T08:05:22.434Z,981.84
2023-10-06T08:06:22.448Z,981.83
2023-10-06T08:07:22.492Z,981.86
2023-10-06T08:08:22.608Z,981.86
2023-10-06T08:09:22.580Z,981.86
2023-10-06T08:10:22.640Z,981.83
2023-10-06T08:11:23.089Z,981.80
2023-10-06T08:12:22.750Z,981.80
2023-10-06T08:13:22.814Z,981.80
2023-10-06T08:14:22.912Z,981.80
2023-10-06T08:15:22.906Z,981.79
2023-10-06T08:16:22.945Z,981.78
2023-10-06T08:17:23.035Z,981.81
2023-10-06T08:18:23.038Z,981.81
2023-10-06T08:19:23.097Z,981.77
2023-10-06T08:20:23.151Z,981.83
2023-10-06T08:21:23.186Z,981.79
2023-10-06T08:22:23.218Z,981.77
2023-10-06T08:23:23.305Z,981.76
2023-10-06T08:24:23.341Z,981.74
2023-10-06T08:25:23.375Z,981.71
2023-10-06T08:26:23.430Z,981.67
2023-10-06T08:27:23.468Z,981.67
2023-10-06T08:28:23.531Z,981.66
2023-10-06T08:29:23.622Z,981.68
2023-10-06T08:30:23.616Z,981.66
2023-10-06T08:31:23.715Z,981.69
2023-10-06T08:32:23.729Z,981.72
2023-10-06T08:33:23.810Z,981.72
2023-10-06T08:34:23.800Z,981.78
2023-10-06T08:35:23.902Z,981.80
2023-10-06T08:36:23.923Z,981.81
2023-10-06T08:37:23.956Z,981.81
2023-10-06T08:38:24.770Z,981.82
2023-10-06T08:39:24.049Z,981.78
2023-10-06T08:40:24.614Z,981.81
2023-10-06T08:41:24.269Z,981.80
2023-10-06T08:42:24.181Z,981.78
2023-10-06T08:43:24.277Z,981.80
2023-10-06T08:44:24.350Z,981.81
2023-10-06T08:45:24.368Z,981.85
2023-10-06T08:46:24.490Z,981.82
2023-10-06T08:47:29.562Z,981.81
2023-10-06T08:48:24.646Z,981.82
2023-10-06T08:49:24.595Z,981.86
2023-10-06T08:50:24.659Z,981.85
2023-10-06T08:51:24.628Z,981.87
2023-10-06T08:52:24.692Z,981.89
2023-10-06T08:53:24.835Z,981.89
2023-10-06T08:54:24.792Z,981.87
2023-10-06T08:55:24.865Z,981.83
2023-10-06T08:56:24.937Z,981.81
2023-10-06T08:57:24.926Z,981.86
2023-10-06T08:58:25.011Z,981.85
2023-10-06T08:59:25.044Z,981.85
2023-10-06T09:00:25.104Z,981.80
2023-10-06T09:01:25.136Z,981.83
2023-10-06T09:02:25.740Z,981.83
2023-10-06T09:03:27.690Z,981.80
2023-10-06T09:04:25.272Z,981.83
2023-10-06T09:05:25.368Z,981.87
2023-10-06T09:06:25.376Z,981.83
2023-10-06T09:07:25.422Z,981.81
2023-10-06T09:08:25.565Z,981.80
2023-10-06T09:09:25.537Z,981.78
2023-10-06T09:10:25.576Z,981.78
2023-10-06T09:11:25.715Z,981.78
2023-10-06T09:12:25.681Z,981.75
2023-10-06T09:13:25.737Z,981.77
2023-10-06T09:14:25.830Z,981.73
2023-10-06T09:15:25.845Z,981.71
2023-10-06T09:16:25.969Z,981.69
2023-10-06T09:17:25.957Z,981.63
2023-10-06T09:18:25.967Z,981.65
2023-10-06T09:19:26.006Z,981.63
2023-10-06T09:20:30.582Z,981.68
2023-10-06T09:21:26.154Z,981.71
2023-10-06T09:22:26.157Z,981.73
2023-10-06T09:23:26.245Z,981.71
2023-10-06T09:24:26.257Z,981.72
2023-10-06T09:25:26.307Z,981.76
2023-10-06T09:26:26.486Z,981.75
2023-10-06T09:27:26.523Z,981.73
2023-10-06T09:28:26.446Z,981.76
2023-10-06T09:29:26.569Z,981.76
2023-10-06T09:30:26.550Z,981.73
2023-10-06T09:31:26.700Z,981.74
2023-10-06T09:32:27.236Z,981.74
2023-10-06T09:33:26.734Z,981.73
2023-10-06T09:34:26.790Z,981.70
2023-10-06T09:35:26.849Z,981.72
2023-10-06T09:36:40.667Z,981.71
2023-10-06T09:37:26.900Z,981.69
2023-10-06T09:38:26.978Z,981.69
2023-10-06T09:39:27.051Z,981.69
2023-10-06T09:40:27.044Z,981.69
2023-10-06T09:41:27.175Z,981.68
2023-10-06T09:42:27.141Z,981.71
2023-10-06T09:43:27.238Z,981.66
2023-10-06T09:44:27.292Z,981.67
2023-10-06T09:45:27.305Z,981.62
2023-10-06T09:46:27.365Z,981.63
2023-10-06T09:47:27.463Z,981.58
2023-10-06T09:48:27.662Z,981.57
2023-10-06T09:49:27.511Z,981.60
2023-10-06T09:50:27.641Z,981.56
2023-10-06T09:51:27.587Z,981.58
2023-10-06T09:54:06.925Z,981.64
2023-10-06T09:55:06.899Z,981.66
2023-10-06T09:56:07.902Z,981.69
2023-10-06T09:57:06.986Z,981.73
2023-10-06T09:58:07.035Z,981.66
2023-10-06T09:59:07.139Z,981.67
2023-10-06T10:00:07.128Z,981.70
2023-10-06T10:01:07.211Z,981.68
2023-10-06T10:02:07.351Z,981.68
2023-10-06T10:03:07.417Z,981.61
2023-10-06T10:04:07.596Z,981.60
2023-10-06T10:05:07.431Z,981.62
2023-10-06T10:06:07.427Z,981.60
2023-10-06T10:07:07.523Z,981.57
2023-10-06T10:08:08.396Z,981.57
2023-10-06T10:09:07.587Z,981.55
2023-10-06T10:10:07.628Z,981.57
2023-10-06T10:11:07.743Z,981.52
2023-10-06T10:12:07.807Z,981.52
2023-10-06T10:13:07.796Z,981.51
2023-10-06T10:14:08.044Z,981.52
2023-10-06T10:15:07.888Z,981.51
2023-10-06T10:16:07.953Z,981.51
2023-10-06T10:17:08.118Z,981.51
2023-10-06T10:18:08.056Z,981.53
2023-10-06T10:19:08.103Z,981.51
2023-10-06T10:20:08.177Z,981.54
2023-10-06T10:21:08.196Z,981.54
2023-10-06T10:22:08.263Z,981.53
2023-10-06T10:23:08.372Z,981.54
2023-10-06T10:25:23.273Z,981.55
2023-10-06T10:26:08.475Z,981.56
2023-10-06T10:27:08.493Z,981.53
2023-10-06T10:28:08.546Z,981.53
2023-10-06T10:29:08.655Z,981.51
2023-10-06T10:30:08.655Z,981.53
2023-10-06T10:31:08.720Z,981.48
2023-10-06T10:32:08.784Z,981.48
2023-10-06T10:33:08.899Z,981.46
2023-10-06T10:34:24.528Z,981.48
2023-10-06T10:35:08.972Z,981.46
2023-10-06T10:36:08.996Z,981.48
2023-10-06T10:37:09.005Z,981.47
2023-10-06T10:38:09.146Z,981.53
2023-10-06T10:39:09.114Z,981.50
2023-10-06T10:40:09.202Z,981.50
2023-10-06T10:41:09.294Z,981.47
2023-10-06T10:42:09.279Z,981.47
2023-10-06T10:43:10.512Z,981.48
2023-10-06T10:44:24.706Z,981.49
2023-10-06T10:45:09.424Z,981.49
2023-10-06T10:46:09.567Z,981.47
2023-10-06T10:47:09.621Z,981.47
2023-10-06T10:48:09.636Z,981.48
2023-10-06T10:49:09.637Z,981.46
2023-10-06T10:50:09.737Z,981.47
2023-10-06T10:51:09.741Z,981.46
2023-10-06T10:52:09.805Z,981.44
2023-10-06T10:53:09.879Z,981.43
2023-10-06T10:54:09.989Z,981.42
2023-10-06T10:55:10.000Z,981.43
2023-10-06T10:56:10.123Z,981.42
2023-10-06T10:57:10.064Z,981.40
2023-10-06T10:58:10.126Z,981.38
2023-10-06T10:59:10.180Z,981.45
2023-10-06T11:00:10.210Z,981.38
2023-10-06T11:01:10.275Z,981.38
2023-10-06T11:02:10.355Z,981.38
2023-10-06T11:03:10.522Z,981.35
2023-10-06T11:04:10.752Z,981.31
2023-10-06T11:05:10.511Z,981.32
2023-10-06T11:06:10.527Z,981.33
2023-10-06T11:07:10.587Z,981.33
2023-10-06T11:08:10.667Z,981.34
2023-10-06T11:09:10.688Z,981.33
2023-10-06T11:10:10.734Z,981.29
2023-10-06T11:11:10.843Z,981.34
2023-10-06T11:12:23.596Z,981.30
2023-10-06T11:13:10.895Z,981.30
2023-10-06T11:14:11.167Z,981.26
2023-10-06T11:15:11.003Z,981.26
2023-10-06T11:16:11.071Z,981.22
2023-10-06T11:17:11.141Z,981.18
2023-10-06T11:18:11.216Z,981.16
2023-10-06T11:19:11.234Z,981.17
2023-10-06T11:20:11.927Z,981.15
2023-10-06T11:21:11.317Z,981.15
2023-10-06T11:22:11.354Z,981.10
2023-10-06T11:23:11.467Z,981.12
2023-10-06T11:24:11.586Z,981.09
2023-10-06T11:25:11.506Z,981.13
2023-10-06T11:26:11.621Z,981.09
2023-10-06T11:27:11.618Z,981.15
2023-10-06T11:28:11.675Z,981.07
2023-10-06T11:29:11.752Z,981.05
2023-10-06T11:30:11.788Z,981.07
2023-10-06T11:31:11.901Z,981.05
2023-10-06T11:32:11.918Z,981.05
2023-10-06T11:33:11.947Z,981.05
2023-10-06T11:34:12.035Z,981.05
2023-10-06T11:35:12.085Z,981.04
2023-10-06T11:36:12.135Z,980.96
2023-10-06T11:37:12.145Z,981.00
2023-10-06T11:38:12.351Z,981.02
2023-10-06T11:39:12.257Z,980.98
2023-10-06T11:40:12.327Z,980.97
2023-10-06T11:41:12.415Z,980.97
2023-10-06T11:42:12.455Z,980.99
2023-10-06T11:43:12.486Z,980.96
2023-10-06T11:44:12.609Z,980.92
2023-10-06T11:45:12.628Z,980.91
2023-10-06T11:46:12.675Z,980.93
2023-10-06T11:47:12.764Z,980.96
2023-10-06T11:48:12.838Z,980.95
2023-10-06T11:49:12.817Z,980.91
2023-10-06T11:50:12.897Z,980.93
2023-10-06T11:51:12.930Z,980.87
2023-10-06T11:52:12.992Z,980.86
2023-10-06T11:53:13.135Z,980.84
2023-10-06T11:54:13.098Z,980.84
2023-10-06T11:55:13.179Z,980.81
2023-10-06T11:56:13.292Z,980.81
2023-10-06T11:57:13.266Z,980.77
2023-10-06T11:58:13.322Z,980.78
2023-10-06T11:59:13.425Z,980.79
2023-10-06T12:00:13.429Z,980.79
2023-10-06T12:01:13.550Z,980.80
2023-10-06T12:02:13.732Z,980.73
2023-10-06T12:03:13.766Z,980.77
2023-10-06T12:04:13.857Z,980.76
2023-10-06T12:05:13.769Z,980.76
2023-10-06T12:06:13.801Z,980.72
2023-10-06T12:07:13.822Z,980.69
2023-10-06T12:08:13.913Z,980.69
2023-10-06T12:09:14.084Z,980.72
2023-10-06T12:10:13.987Z,980.67
2023-10-06T12:11:14.125Z,980.66
2023-10-06T12:12:14.107Z,980.69
2023-10-06T12:13:14.151Z,980.66
2023-10-06T12:14:14.344Z,980.66
2023-10-06T12:15:14.317Z,980.67
2023-10-06T12:16:14.356Z,980.64
2023-10-06T12:17:14.396Z,980.60
2023-10-06T12:18:14.541Z,980.58
2023-10-06T12:19:14.488Z,980.60
2023-10-06T12:20:14.570Z,980.56
2023-10-06T12:21:14.600Z,980.53
2023-10-06T12:22:17.019Z,980.54
2023-10-06T12:23:14.754Z,980.54
2023-10-06T12:24:14.756Z,980.52
2023-10-06T12:25:15.482Z,980.50
2023-10-06T12:26:14.927Z,980.49
2023-10-06T12:27:14.908Z,980.53
2023-10-06T12:28:15.043Z,980.49
2023-10-06T12:29:15.068Z,980.48
2023-10-06T12:30:15.089Z,980.45
2023-10-06T12:31:15.252Z,980.51
2023-10-06T12:32:15.222Z,980.44